createdAt,value
2017-02-28T00:00:22.743Z,0
2017-02-28T00:01:33.079Z,0
2017-02-28T00:02:42.854Z,0
2017-02-28T00:03:53.863Z,0
2017-02-28T00:05:05.319Z,0
2017-02-28T00:06:15.561Z,0
2017-02-28T00:07:24.809Z,0
2017-02-28T00:08:34.881Z,0
2017-02-28T00:09:46.849Z,0
2017-02-28T00:10:58.227Z,0
2017-02-28T00:12:08.478Z,0
2017-02-28T00:13:19.975Z,0
2017-02-28T00:14:31.656Z,0
2017-02-28T00:15:42.053Z,0
2017-02-28T00:16:52.005Z,0
2017-02-28T00:18:03.008Z,0
2017-02-28T00:19:12.994Z,0
2017-02-28T00:20:23.890Z,0
2017-02-28T00:21:34.767Z,0
2017-02-28T00:22:46.405Z,0
2017-02-28T00:23:57.790Z,0
2017-02-28T00:25:07.437Z,0
2017-02-28T00:26:19.668Z,0
2017-02-28T00:27:31.146Z,0
2017-02-28T00:28:41.062Z,0
2017-02-28T00:29:53.191Z,0
2017-02-28T00:31:04.765Z,0
2017-02-28T00:32:15.043Z,0
2017-02-28T00:33:26.692Z,0
2017-02-28T00:34:38.194Z,0
2017-02-28T00:35:48.560Z,0
2017-02-28T00:37:00.159Z,0
2017-02-28T00:38:11.633Z,0
2017-02-28T00:39:21.915Z,0
2017-02-28T00:40:33.751Z,0
2017-02-28T00:41:45.243Z,0
2017-02-28T00:42:55.565Z,0
2017-02-28T00:44:07.264Z,0
2017-02-28T00:45:18.948Z,0
2017-02-28T00:46:29.195Z,0
2017-02-28T00:47:41.126Z,0
2017-02-28T00:48:52.317Z,0
2017-02-28T00:50:02.878Z,0
2017-02-28T00:51:14.917Z,0
2017-02-28T00:52:24.243Z,0
2017-02-28T00:53:33.232Z,0
2017-02-28T00:54:42.662Z,0
2017-02-28T00:55:51.948Z,0
2017-02-28T00:57:00.931Z,0
2017-02-28T00:58:10.317Z,0
2017-02-28T00:59:19.304Z,0
2017-02-28T01:00:28.308Z,0
2017-02-28T01:01:37.594Z,0
2017-02-28T01:02:46.584Z,0
2017-02-28T01:03:55.653Z,0
2017-02-28T01:05:04.647Z,0
2017-02-28T01:06:13.650Z,0
2017-02-28T01:07:22.934Z,0
2017-02-28T01:08:31.930Z,0
2017-02-28T01:09:40.912Z,0
2017-02-28T01:10:50.004Z,0
2017-02-28T01:11:58.989Z,0
2017-02-28T01:13:08.243Z,0
2017-02-28T01:14:17.247Z,0
2017-02-28T01:15:26.336Z,0
2017-02-28T01:16:35.332Z,0
2017-02-28T01:17:44.327Z,0
2017-02-28T01:18:53.610Z,0
2017-02-28T01:20:02.609Z,0
2017-02-28T01:21:11.608Z,0
2017-02-28T01:22:20.603Z,0
2017-02-28T01:23:29.593Z,0
2017-02-28T01:24:38.879Z,0
2017-02-28T01:25:47.878Z,0
2017-02-28T01:26:56.866Z,0
2017-02-28T01:28:05.932Z,0
2017-02-28T01:29:14.917Z,0
2017-02-28T01:30:24.212Z,0
2017-02-28T01:31:33.679Z,0
2017-02-28T01:32:42.685Z,0
2017-02-28T01:33:51.669Z,0
2017-02-28T01:35:00.671Z,0
2017-02-28T01:36:10.041Z,0
2017-02-28T01:37:19.106Z,0
2017-02-28T01:38:28.083Z,0
2017-02-28T01:39:37.174Z,0
2017-02-28T01:40:46.174Z,0
2017-02-28T01:41:55.422Z,0
2017-02-28T01:43:04.401Z,0
2017-02-28T01:44:13.487Z,0
2017-02-28T01:45:22.562Z,0
2017-02-28T01:46:31.568Z,0
2017-02-28T01:47:41.455Z,0
2017-02-28T01:48:50.857Z,0
2017-02-28T01:49:59.868Z,0
2017-02-28T01:51:08.858Z,0
2017-02-28T01:52:17.866Z,0
2017-02-28T01:53:27.329Z,0
2017-02-28T01:54:36.425Z,0
2017-02-28T01:55:45.412Z,0
2017-02-28T01:56:54.390Z,0
2017-02-28T01:58:03.378Z,0
2017-02-28T01:59:12.667Z,0
2017-02-28T02:00:21.665Z,0
2017-02-28T02:01:30.665Z,0
2017-02-28T02:02:39.645Z,0
2017-02-28T02:03:48.635Z,0
2017-02-28T02:04:58.283Z,0
2017-02-28T02:06:07.278Z,0
2017-02-28T02:07:16.297Z,0
2017-02-28T02:08:25.710Z,0
2017-02-28T02:09:34.711Z,0
2017-02-28T02:10:44.004Z,0
2017-02-28T02:11:52.990Z,0
2017-02-28T02:13:01.989Z,0
2017-02-28T02:14:10.981Z,0
2017-02-28T02:15:20.065Z,0
2017-02-28T02:16:29.764Z,0
2017-02-28T02:17:38.768Z,0
2017-02-28T02:18:47.767Z,0
2017-02-28T02:19:56.744Z,0
2017-02-28T02:21:06.157Z,0
2017-02-28T02:22:15.537Z,0
2017-02-28T02:23:24.957Z,0
2017-02-28T02:24:33.948Z,0
2017-02-28T02:25:42.928Z,0
2017-02-28T02:26:52.007Z,0
2017-02-28T02:28:01.232Z,0
2017-02-28T02:29:10.247Z,0
2017-02-28T02:30:19.339Z,0
2017-02-28T02:31:28.323Z,0
2017-02-28T02:32:37.313Z,0
2017-02-28T02:33:46.573Z,0
2017-02-28T02:34:55.549Z,0
2017-02-28T02:36:04.618Z,0
2017-02-28T02:37:13.594Z,0
2017-02-28T02:38:22.578Z,0
2017-02-28T02:39:31.865Z,0
2017-02-28T02:40:40.855Z,0
2017-02-28T02:41:49.850Z,0
2017-02-28T02:42:58.928Z,0
2017-02-28T02:44:07.914Z,0
2017-02-28T02:45:17.258Z,0
2017-02-28T02:46:26.336Z,0
2017-02-28T02:47:35.334Z,0
2017-02-28T02:48:44.325Z,0
2017-02-28T02:49:53.311Z,0
2017-02-28T02:51:02.549Z,0
2017-02-28T02:52:11.540Z,0
2017-02-28T02:53:20.529Z,0
2017-02-28T02:54:29.516Z,0
2017-02-28T02:55:38.542Z,0
2017-02-28T02:56:47.781Z,0
2017-02-28T02:57:56.885Z,0
2017-02-28T02:59:06.281Z,0
2017-02-28T03:00:15.285Z,0
2017-02-28T03:01:24.275Z,0
2017-02-28T03:02:33.562Z,0
2017-02-28T03:03:42.646Z,0
2017-02-28T03:04:51.675Z,0
2017-02-28T03:06:00.740Z,0
2017-02-28T03:07:09.721Z,0
2017-02-28T03:08:19.002Z,0
2017-02-28T03:09:27.983Z,0
2017-02-28T03:10:36.975Z,0
2017-02-28T03:11:45.977Z,0
2017-02-28T03:12:54.981Z,0
2017-02-28T03:14:04.283Z,0
2017-02-28T03:15:13.273Z,0
2017-02-28T03:16:22.695Z,0
2017-02-28T03:17:31.703Z,0
2017-02-28T03:18:40.690Z,0
2017-02-28T03:19:50.321Z,0
2017-02-28T03:20:59.294Z,0
2017-02-28T03:22:08.273Z,0
2017-02-28T03:23:17.276Z,0
2017-02-28T03:24:26.667Z,0
2017-02-28T03:25:35.914Z,0
2017-02-28T03:26:44.897Z,0
2017-02-28T03:27:53.943Z,0
2017-02-28T03:29:02.917Z,0
2017-02-28T03:30:12.403Z,0
2017-02-28T03:31:21.697Z,0
2017-02-28T03:32:30.673Z,0
2017-02-28T03:33:39.654Z,0
2017-02-28T03:34:48.643Z,0
2017-02-28T03:35:57.624Z,0
2017-02-28T03:37:07.002Z,0
2017-02-28T03:38:16.014Z,0
2017-02-28T03:39:25.021Z,0
2017-02-28T03:40:34.432Z,0
2017-02-28T03:41:43.428Z,0
2017-02-28T03:42:52.716Z,0
2017-02-28T03:44:01.713Z,0
2017-02-28T03:45:10.711Z,0
2017-02-28T03:46:20.190Z,0
2017-02-28T03:47:29.204Z,0
2017-02-28T03:48:38.437Z,0
2017-02-28T03:49:47.525Z,0
2017-02-28T03:50:56.518Z,0
2017-02-28T03:52:05.513Z,0
2017-02-28T03:53:14.500Z,0
2017-02-28T03:54:23.776Z,0
2017-02-28T03:55:32.765Z,0
2017-02-28T03:56:41.757Z,0
2017-02-28T03:57:50.744Z,0
2017-02-28T03:58:59.835Z,0
2017-02-28T04:00:09.152Z,0
2017-02-28T04:01:18.150Z,0
2017-02-28T04:02:27.134Z,0
2017-02-28T04:03:36.124Z,0
2017-02-28T04:04:45.114Z,0
2017-02-28T04:05:54.403Z,0
2017-02-28T04:07:03.490Z,0
2017-02-28T04:08:12.473Z,0
2017-02-28T04:09:21.471Z,0
2017-02-28T04:10:30.460Z,0
2017-02-28T04:11:39.746Z,0
2017-02-28T04:12:48.731Z,0
2017-02-28T04:13:57.814Z,0
2017-02-28T04:15:06.802Z,0
2017-02-28T04:16:15.776Z,0
2017-02-28T04:17:25.155Z,0
2017-02-28T04:18:34.149Z,0
2017-02-28T04:19:43.140Z,0
2017-02-28T04:20:52.148Z,0
2017-02-28T04:22:01.127Z,0
2017-02-28T04:23:10.905Z,0
2017-02-28T04:24:19.907Z,0
2017-02-28T04:25:29.405Z,0
2017-02-28T04:26:38.386Z,0
2017-02-28T04:27:47.373Z,0
2017-02-28T04:28:56.616Z,0
2017-02-28T04:30:05.607Z,0
2017-02-28T04:31:14.586Z,0
2017-02-28T04:32:23.588Z,0
2017-02-28T04:33:32.576Z,0
2017-02-28T04:34:41.563Z,0
2017-02-28T04:35:50.562Z,0
2017-02-28T04:36:59.553Z,0
2017-02-28T04:38:08.540Z,0
2017-02-28T04:39:17.868Z,0
2017-02-28T04:40:26.852Z,0
2017-02-28T04:41:35.851Z,0
2017-02-28T04:42:44.850Z,0
2017-02-28T04:43:53.848Z,0
2017-02-28T04:45:03.165Z,0
2017-02-28T04:46:12.248Z,0
2017-02-28T04:47:21.246Z,0
2017-02-28T04:48:30.234Z,0
2017-02-28T04:49:39.733Z,0
2017-02-28T04:50:49.027Z,0
2017-02-28T04:51:58.022Z,0
2017-02-28T04:53:06.996Z,0
2017-02-28T04:54:15.977Z,0
2017-02-28T04:55:25.066Z,0
2017-02-28T04:56:34.348Z,0
2017-02-28T04:57:43.462Z,0
2017-02-28T04:58:52.544Z,0
2017-02-28T05:00:01.548Z,0
2017-02-28T05:01:10.942Z,0
2017-02-28T05:02:20.239Z,0
2017-02-28T05:03:29.229Z,0
2017-02-28T05:04:38.240Z,0
2017-02-28T05:05:47.292Z,0
2017-02-28T05:06:56.285Z,0
2017-02-28T05:08:05.594Z,0
2017-02-28T05:09:14.674Z,0
2017-02-28T05:10:23.680Z,0
2017-02-28T05:11:32.688Z,0
2017-02-28T05:12:41.664Z,0
2017-02-28T05:13:50.916Z,0
2017-02-28T05:14:59.892Z,0
2017-02-28T05:16:08.888Z,0
2017-02-28T05:17:18.007Z,0
2017-02-28T05:18:27.013Z,0
2017-02-28T05:19:36.296Z,0
2017-02-28T05:20:45.292Z,0
2017-02-28T05:21:54.286Z,0
2017-02-28T05:23:03.293Z,0
2017-02-28T05:24:12.284Z,0
2017-02-28T05:25:21.547Z,0
2017-02-28T05:26:31.984Z,0
2017-02-28T05:27:42.302Z,0
2017-02-28T05:28:53.541Z,0
2017-02-28T05:30:03.328Z,0
2017-02-28T05:31:13.361Z,0
2017-02-28T05:32:24.930Z,0
2017-02-28T05:33:34.825Z,0
2017-02-28T05:34:46.181Z,0
2017-02-28T05:35:57.691Z,0
2017-02-28T05:37:08.223Z,0
2017-02-28T05:38:19.781Z,0
2017-02-28T05:39:31.305Z,0
2017-02-28T05:40:41.802Z,0
2017-02-28T05:41:53.127Z,0
2017-02-28T05:43:04.883Z,0
2017-02-28T05:44:15.050Z,0
2017-02-28T05:45:26.487Z,0
2017-02-28T05:46:37.948Z,0
2017-02-28T05:47:48.287Z,0
2017-02-28T05:49:00.216Z,0
2017-02-28T05:50:11.441Z,0
2017-02-28T05:51:21.855Z,0
2017-02-28T05:52:33.885Z,0
2017-02-28T05:53:44.994Z,0
2017-02-28T05:54:55.619Z,0
2017-02-28T05:56:07.175Z,0
2017-02-28T05:57:18.636Z,0
2017-02-28T05:58:29.021Z,0
2017-02-28T05:59:40.909Z,0
2017-02-28T06:00:52.139Z,0
2017-02-28T06:02:02.739Z,0
2017-02-28T06:03:14.658Z,0
2017-02-28T06:04:25.692Z,0
2017-02-28T06:05:36.374Z,0
2017-02-28T06:06:48.325Z,0
2017-02-28T06:07:59.113Z,0
2017-02-28T06:09:09.505Z,0
2017-02-28T06:10:21.524Z,0
2017-02-28T06:11:32.797Z,0
2017-02-28T06:12:43.164Z,0
2017-02-28T06:13:55.089Z,0
2017-02-28T06:15:06.379Z,0
2017-02-28T06:16:16.859Z,0
2017-02-28T06:17:26.817Z,5
2017-02-28T06:18:37.942Z,5
2017-02-28T06:19:48.121Z,5
2017-02-28T06:20:59.465Z,5
2017-02-28T06:22:09.062Z,5
2017-02-28T06:23:21.661Z,5
2017-02-28T06:24:32.205Z,5
2017-02-28T06:25:42.756Z,5
2017-02-28T06:26:55.141Z,5
2017-02-28T06:28:05.713Z,5
2017-02-28T06:29:16.325Z,5
2017-02-28T06:30:28.489Z,5
2017-02-28T06:31:38.973Z,5
2017-02-28T06:32:49.649Z,5
2017-02-28T06:34:01.969Z,5
2017-02-28T06:35:12.874Z,10
2017-02-28T06:36:23.316Z,10
2017-02-28T06:37:34.422Z,10
2017-02-28T06:38:44.374Z,10
2017-02-28T06:39:54.664Z,10
2017-02-28T06:41:05.509Z,10
2017-02-28T06:42:15.746Z,10
2017-02-28T06:43:27.519Z,10
2017-02-28T06:44:38.767Z,10
2017-02-28T06:45:49.151Z,10
2017-02-28T06:47:01.194Z,10
2017-02-28T06:48:12.287Z,10
2017-02-28T06:49:22.748Z,10
2017-02-28T06:50:35.399Z,10
2017-02-28T06:51:44.394Z,10
2017-02-28T06:52:53.389Z,10
2017-02-28T06:54:02.715Z,10
2017-02-28T06:55:11.723Z,10
2017-02-28T06:56:20.707Z,10
2017-02-28T06:57:29.684Z,10
2017-02-28T06:58:39.072Z,10
2017-02-28T06:59:48.352Z,10
2017-02-28T07:00:57.333Z,10
2017-02-28T07:02:06.414Z,10
2017-02-28T07:03:15.836Z,15
2017-02-28T07:04:24.825Z,15
2017-02-28T07:05:34.119Z,15
2017-02-28T07:06:43.124Z,15
2017-02-28T07:07:52.104Z,20
2017-02-28T07:09:01.094Z,20
2017-02-28T07:10:10.087Z,15
2017-02-28T07:11:19.329Z,15
2017-02-28T07:12:28.339Z,20
2017-02-28T07:13:37.418Z,20
2017-02-28T07:14:46.406Z,15
2017-02-28T07:15:55.409Z,15
2017-02-28T07:17:04.696Z,20
2017-02-28T07:18:14.113Z,20
2017-02-28T07:19:23.112Z,20
2017-02-28T07:20:32.524Z,20
2017-02-28T07:21:41.620Z,25
2017-02-28T07:22:50.903Z,25
2017-02-28T07:23:59.978Z,25
2017-02-28T07:25:08.966Z,30
2017-02-28T07:26:17.942Z,35
2017-02-28T07:27:26.952Z,35
2017-02-28T07:28:36.196Z,30
2017-02-28T07:29:45.267Z,35
2017-02-28T07:30:54.301Z,35
2017-02-28T07:32:03.285Z,35
2017-02-28T07:33:12.268Z,35
2017-02-28T07:34:21.597Z,30
2017-02-28T07:35:31.122Z,30
2017-02-28T07:36:40.123Z,25
2017-02-28T07:37:51.573Z,25
2017-02-28T07:39:05.079Z,20
2017-02-28T07:40:14.380Z,20
2017-02-28T07:41:23.356Z,15
2017-02-28T07:42:32.353Z,20
2017-02-28T07:43:41.769Z,15
2017-02-28T07:44:50.751Z,20
2017-02-28T07:46:00.037Z,25
2017-02-28T07:47:09.029Z,25
2017-02-28T07:48:18.015Z,25
2017-02-28T07:49:27.005Z,25
2017-02-28T07:50:35.994Z,30
2017-02-28T07:51:45.280Z,30
2017-02-28T07:52:54.275Z,35
2017-02-28T07:54:03.269Z,30
2017-02-28T07:55:12.266Z,25
2017-02-28T07:56:21.255Z,30
2017-02-28T07:57:30.657Z,30
2017-02-28T07:58:39.654Z,25
2017-02-28T07:59:48.652Z,30
2017-02-28T08:00:57.724Z,35
2017-02-28T08:02:06.735Z,35
2017-02-28T08:03:16.037Z,40
2017-02-28T08:04:25.033Z,40
2017-02-28T08:05:34.024Z,40
2017-02-28T08:06:43.002Z,40
2017-02-28T08:07:52.002Z,40
2017-02-28T08:09:01.732Z,40
2017-02-28T08:10:10.724Z,40
2017-02-28T08:11:19.808Z,35
2017-02-28T08:12:29.199Z,35
2017-02-28T08:13:38.184Z,35
2017-02-28T08:14:47.544Z,35
2017-02-28T08:15:56.521Z,40
2017-02-28T08:17:05.594Z,40
2017-02-28T08:18:14.596Z,40
2017-02-28T08:19:25.164Z,45
2017-02-28T08:20:34.944Z,50
2017-02-28T08:21:43.918Z,55
2017-02-28T08:22:52.901Z,55
2017-02-28T08:24:01.889Z,50
2017-02-28T08:25:11.119Z,55
2017-02-28T08:26:20.454Z,60
2017-02-28T08:27:29.533Z,65
2017-02-28T08:28:38.511Z,65
2017-02-28T08:29:47.912Z,65
2017-02-28T08:30:57.869Z,70
2017-02-28T08:32:07.279Z,70
2017-02-28T08:33:16.321Z,65
2017-02-28T08:34:25.326Z,65
2017-02-28T08:35:34.324Z,65
2017-02-28T08:36:44.085Z,70
2017-02-28T08:37:53.479Z,65
2017-02-28T08:39:02.817Z,60
2017-02-28T08:40:17.488Z,60
2017-02-28T08:41:31.029Z,55
2017-02-28T08:42:47.177Z,55
2017-02-28T08:43:59.585Z,50
2017-02-28T08:45:08.952Z,55
2017-02-28T08:46:18.347Z,65
2017-02-28T08:47:27.653Z,70
2017-02-28T08:48:36.981Z,65
2017-02-28T08:49:46.482Z,60
2017-02-28T08:50:55.875Z,65
2017-02-28T08:52:04.869Z,70
2017-02-28T08:53:13.853Z,70
2017-02-28T08:54:23.135Z,75
2017-02-28T08:55:32.122Z,70
2017-02-28T08:56:41.526Z,65
2017-02-28T08:57:50.513Z,65
2017-02-28T08:58:59.509Z,75
2017-02-28T09:00:08.883Z,80
2017-02-28T09:01:17.879Z,80
2017-02-28T09:02:27.318Z,85
2017-02-28T09:03:36.312Z,85
2017-02-28T09:04:45.285Z,85
2017-02-28T09:05:54.608Z,80
2017-02-28T09:07:03.590Z,80
2017-02-28T09:08:12.594Z,85
2017-02-28T09:09:21.595Z,85
2017-02-28T09:10:30.619Z,90
2017-02-28T09:11:39.919Z,95
2017-02-28T09:12:48.904Z,95
2017-02-28T09:13:57.898Z,95
2017-02-28T09:15:07.286Z,100
2017-02-28T09:16:16.273Z,100
2017-02-28T09:17:25.556Z,100
2017-02-28T09:18:34.556Z,95
2017-02-28T09:19:43.550Z,90
2017-02-28T09:20:52.544Z,90
2017-02-28T09:22:01.527Z,85
2017-02-28T09:23:10.971Z,80
2017-02-28T09:24:19.976Z,80
2017-02-28T09:25:28.973Z,80
2017-02-28T09:26:37.960Z,80
2017-02-28T09:27:46.970Z,80
2017-02-28T09:28:56.446Z,80
2017-02-28T09:30:05.438Z,80
2017-02-28T09:31:14.515Z,85
2017-02-28T09:32:23.495Z,95
2017-02-28T09:33:32.493Z,95
2017-02-28T09:34:41.782Z,95
2017-02-28T09:35:50.779Z,100
2017-02-28T09:36:59.783Z,95
2017-02-28T09:38:09.168Z,95
2017-02-28T09:39:18.162Z,100
2017-02-28T09:40:27.475Z,100
2017-02-28T09:41:36.878Z,105
2017-02-28T09:42:45.952Z,105
2017-02-28T09:43:54.955Z,110
2017-02-28T09:45:04.384Z,105
2017-02-28T09:46:14.547Z,85
2017-02-28T09:47:23.549Z,90
2017-02-28T09:48:32.765Z,90
2017-02-28T09:49:42.129Z,100
2017-02-28T09:50:51.116Z,100
2017-02-28T09:52:00.418Z,105
2017-02-28T09:53:09.409Z,110
2017-02-28T09:54:18.495Z,110
2017-02-28T09:55:27.571Z,105
2017-02-28T09:56:36.569Z,105
2017-02-28T09:57:45.872Z,105
2017-02-28T09:58:54.868Z,100
2017-02-28T10:00:03.855Z,95
2017-02-28T10:01:12.841Z,105
2017-02-28T10:02:23.305Z,110
2017-02-28T10:03:33.394Z,115
2017-02-28T10:04:42.386Z,120
2017-02-28T10:05:51.834Z,115
2017-02-28T10:07:00.832Z,115
2017-02-28T10:08:10.445Z,110
2017-02-28T10:09:19.732Z,105
2017-02-28T10:10:28.724Z,110
2017-02-28T10:11:37.788Z,110
2017-02-28T10:12:46.776Z,110
2017-02-28T10:13:56.244Z,115
2017-02-28T10:15:06.001Z,115
2017-02-28T10:16:14.978Z,125
2017-02-28T10:17:23.967Z,130
2017-02-28T10:18:33.776Z,130
2017-02-28T10:19:42.768Z,120
2017-02-28T10:20:52.097Z,115
2017-02-28T10:22:01.118Z,110
2017-02-28T10:23:10.201Z,120
2017-02-28T10:24:19.178Z,120
2017-02-28T10:25:28.166Z,110
2017-02-28T10:26:37.404Z,105
2017-02-28T10:27:46.404Z,110
2017-02-28T10:28:55.391Z,120
2017-02-28T10:30:04.401Z,125
2017-02-28T10:31:13.794Z,130
2017-02-28T10:32:23.074Z,135
2017-02-28T10:33:32.061Z,145
2017-02-28T10:34:41.059Z,150
2017-02-28T10:35:50.454Z,145
2017-02-28T10:36:59.442Z,135
2017-02-28T10:38:08.840Z,140
2017-02-28T10:39:17.860Z,135
2017-02-28T10:40:26.854Z,135
2017-02-28T10:41:35.856Z,130
2017-02-28T10:42:44.847Z,135
2017-02-28T10:43:54.155Z,140
2017-02-28T10:45:03.221Z,135
2017-02-28T10:46:12.332Z,130
2017-02-28T10:47:21.418Z,130
2017-02-28T10:48:30.401Z,125
2017-02-28T10:49:39.679Z,125
2017-02-28T10:50:48.668Z,105
2017-02-28T10:51:58.164Z,115
2017-02-28T10:53:07.162Z,125
2017-02-28T10:54:16.170Z,140
2017-02-28T10:55:25.584Z,140
2017-02-28T10:56:34.616Z,135
2017-02-28T10:57:43.679Z,155
2017-02-28T10:58:52.683Z,165
2017-02-28T11:00:02.091Z,140
2017-02-28T11:01:11.410Z,130
2017-02-28T11:02:20.390Z,155
2017-02-28T11:03:29.382Z,155
2017-02-28T11:04:38.359Z,140
2017-02-28T11:05:48.171Z,155
2017-02-28T11:06:57.447Z,135
2017-02-28T11:08:06.526Z,115
2017-02-28T11:09:15.537Z,110
2017-02-28T11:10:24.530Z,110
2017-02-28T11:11:33.527Z,85
2017-02-28T11:12:42.829Z,65
2017-02-28T11:13:52.329Z,85
2017-02-28T11:15:01.346Z,85
2017-02-28T11:16:10.737Z,65
2017-02-28T11:17:19.729Z,90
2017-02-28T11:18:28.985Z,165
2017-02-28T11:19:37.988Z,120
2017-02-28T11:20:46.977Z,115
2017-02-28T11:21:55.970Z,90
2017-02-28T11:23:05.063Z,85
2017-02-28T11:24:14.408Z,100
2017-02-28T11:25:23.399Z,135
2017-02-28T11:26:32.397Z,135
2017-02-28T11:27:41.379Z,120
2017-02-28T11:28:50.380Z,120
2017-02-28T11:29:59.683Z,125
2017-02-28T11:31:08.682Z,140
2017-02-28T11:32:17.678Z,135
2017-02-28T11:33:26.653Z,160
2017-02-28T11:34:35.661Z,165
2017-02-28T11:35:44.943Z,140
2017-02-28T11:36:54.012Z,105
2017-02-28T11:38:03.021Z,105
2017-02-28T11:39:12.030Z,130
2017-02-28T11:40:21.039Z,125
2017-02-28T11:41:30.323Z,120
2017-02-28T11:42:39.343Z,130
2017-02-28T11:43:48.335Z,130
2017-02-28T11:44:57.739Z,110
2017-02-28T11:46:06.718Z,105
2017-02-28T11:47:16.492Z,120
2017-02-28T11:48:25.481Z,135
2017-02-28T11:49:34.482Z,200
2017-02-28T11:50:43.883Z,175
2017-02-28T11:51:52.855Z,90
2017-02-28T11:53:02.495Z,65
2017-02-28T11:54:11.472Z,90
2017-02-28T11:55:20.500Z,130
2017-02-28T11:56:29.488Z,100
2017-02-28T11:57:38.460Z,80
2017-02-28T11:58:48.180Z,80
2017-02-28T11:59:57.161Z,80
2017-02-28T12:01:06.163Z,45
2017-02-28T12:02:15.558Z,80
2017-02-28T12:03:24.539Z,80
2017-02-28T12:04:33.918Z,65
2017-02-28T12:05:43.303Z,85
2017-02-28T12:06:52.308Z,85
2017-02-28T12:08:01.310Z,80
2017-02-28T12:09:10.465Z,80
2017-02-28T12:10:19.764Z,50
2017-02-28T12:11:29.169Z,80
2017-02-28T12:12:38.154Z,80
2017-02-28T12:13:47.336Z,80
2017-02-28T12:14:56.314Z,80
2017-02-28T12:16:05.599Z,80
2017-02-28T12:17:14.577Z,45
2017-02-28T12:18:23.574Z,80
2017-02-28T12:19:32.563Z,80
2017-02-28T12:20:41.651Z,80
2017-02-28T12:21:50.943Z,85
2017-02-28T12:23:00.022Z,85
2017-02-28T12:24:09.012Z,100
2017-02-28T12:25:18.009Z,90
2017-02-28T12:26:26.989Z,110
2017-02-28T12:27:36.284Z,105
2017-02-28T12:28:45.297Z,70
2017-02-28T12:29:54.283Z,70
2017-02-28T12:31:03.364Z,65
2017-02-28T12:32:12.440Z,70
2017-02-28T12:33:21.740Z,120
2017-02-28T12:34:30.726Z,100
2017-02-28T12:35:40.137Z,95
2017-02-28T12:36:49.121Z,90
2017-02-28T12:37:58.106Z,95
2017-02-28T12:39:07.399Z,95
2017-02-28T12:40:16.839Z,100
2017-02-28T12:41:25.831Z,105
2017-02-28T12:42:34.838Z,120
2017-02-28T12:43:43.929Z,120
2017-02-28T12:44:53.630Z,110
2017-02-28T12:46:02.632Z,135
2017-02-28T12:47:11.644Z,140
2017-02-28T12:48:20.630Z,150
2017-02-28T12:49:29.613Z,155
2017-02-28T12:50:39.000Z,160
2017-02-28T12:51:48.408Z,140
2017-02-28T12:52:57.502Z,140
2017-02-28T12:54:06.479Z,95
2017-02-28T12:55:15.466Z,95
2017-02-28T12:56:24.756Z,85
2017-02-28T12:57:33.772Z,100
2017-02-28T12:58:42.751Z,125
2017-02-28T12:59:51.740Z,95
2017-02-28T13:01:00.717Z,85
2017-02-28T13:02:10.009Z,175
2017-02-28T13:03:18.998Z,70
2017-02-28T13:04:27.986Z,150
2017-02-28T13:05:36.965Z,130
2017-02-28T13:06:45.951Z,85
2017-02-28T13:07:55.239Z,80
2017-02-28T13:09:04.309Z,80
2017-02-28T13:10:13.374Z,80
2017-02-28T13:11:22.354Z,85
2017-02-28T13:12:31.353Z,80
2017-02-28T13:13:40.647Z,75
2017-02-28T13:14:49.640Z,75
2017-02-28T13:15:58.703Z,75
2017-02-28T13:17:07.700Z,75
2017-02-28T13:18:16.692Z,75
2017-02-28T13:19:25.938Z,75
2017-02-28T13:20:35.009Z,75
2017-02-28T13:21:44.000Z,75
2017-02-28T13:22:52.994Z,70
2017-02-28T13:24:01.978Z,40
2017-02-28T13:25:11.262Z,40
2017-02-28T13:26:20.273Z,70
2017-02-28T13:27:29.283Z,75
2017-02-28T13:28:38.286Z,55
2017-02-28T13:29:47.267Z,50
2017-02-28T13:30:56.505Z,80
2017-02-28T13:32:05.568Z,80
2017-02-28T13:33:14.582Z,115
2017-02-28T13:34:23.562Z,140
2017-02-28T13:35:32.562Z,140
2017-02-28T13:36:41.873Z,100
2017-02-28T13:37:50.876Z,45
2017-02-28T13:38:59.859Z,55
2017-02-28T13:40:08.853Z,50
2017-02-28T13:41:17.832Z,65
2017-02-28T13:42:27.132Z,90
2017-02-28T13:43:36.210Z,90
2017-02-28T13:44:45.186Z,100
2017-02-28T13:45:54.187Z,85
2017-02-28T13:47:03.579Z,85
2017-02-28T13:48:12.890Z,65
2017-02-28T13:49:21.896Z,75
2017-02-28T13:50:30.975Z,75
2017-02-28T13:51:39.999Z,75
2017-02-28T13:52:49.084Z,45
2017-02-28T13:53:58.381Z,45
2017-02-28T13:55:07.370Z,45
2017-02-28T13:56:16.370Z,70
2017-02-28T13:57:25.448Z,80
2017-02-28T13:58:34.432Z,75
2017-02-28T13:59:43.710Z,105
2017-02-28T14:00:52.721Z,105
2017-02-28T14:02:01.830Z,110
2017-02-28T14:03:11.229Z,110
2017-02-28T14:04:20.211Z,70
2017-02-28T14:05:29.497Z,60
2017-02-28T14:06:38.565Z,70
2017-02-28T14:07:47.567Z,75
2017-02-28T14:08:56.552Z,70
2017-02-28T14:10:05.546Z,75
2017-02-28T14:11:14.787Z,80
2017-02-28T14:12:23.776Z,75
2017-02-28T14:13:32.774Z,80
2017-02-28T14:14:41.785Z,75
2017-02-28T14:15:50.766Z,75
2017-02-28T14:17:00.015Z,80
2017-02-28T14:18:09.018Z,85
2017-02-28T14:19:18.414Z,80
2017-02-28T14:20:27.411Z,80
2017-02-28T14:21:36.478Z,80
2017-02-28T14:22:45.767Z,90
2017-02-28T14:23:54.749Z,80
2017-02-28T14:25:03.738Z,80
2017-02-28T14:26:13.155Z,65
2017-02-28T14:27:22.223Z,65
2017-02-28T14:28:31.466Z,60
2017-02-28T14:29:40.530Z,55
2017-02-28T14:30:49.921Z,55
2017-02-28T14:31:58.917Z,55
2017-02-28T14:33:07.896Z,45
2017-02-28T14:34:17.189Z,55
2017-02-28T14:35:26.178Z,40
2017-02-28T14:36:35.169Z,45
2017-02-28T14:37:44.149Z,50
2017-02-28T14:38:53.148Z,50
2017-02-28T14:40:02.390Z,45
2017-02-28T14:41:11.380Z,45
2017-02-28T14:42:20.370Z,40
2017-02-28T14:43:29.381Z,40
2017-02-28T14:44:38.371Z,40
2017-02-28T14:45:47.673Z,45
2017-02-28T14:46:56.759Z,45
2017-02-28T14:48:05.753Z,45
2017-02-28T14:49:14.734Z,45
2017-02-28T14:50:23.730Z,40
2017-02-28T14:51:32.969Z,45
2017-02-28T14:52:41.974Z,45
2017-02-28T14:53:51.056Z,50
2017-02-28T14:55:00.122Z,50
2017-02-28T14:56:09.186Z,45
2017-02-28T14:57:18.463Z,50
2017-02-28T14:58:27.450Z,50
2017-02-28T14:59:36.467Z,45
2017-02-28T15:00:45.458Z,50
2017-02-28T15:01:54.543Z,60
2017-02-28T15:03:03.841Z,50
2017-02-28T15:04:12.924Z,45
2017-02-28T15:05:21.934Z,40
2017-02-28T15:06:30.946Z,40
2017-02-28T15:07:39.939Z,35
2017-02-28T15:08:49.215Z,30
2017-02-28T15:09:58.218Z,30
2017-02-28T15:11:07.216Z,35
2017-02-28T15:12:16.616Z,35
2017-02-28T15:13:25.602Z,40
2017-02-28T15:14:34.891Z,45
2017-02-28T15:15:43.871Z,50
2017-02-28T15:16:52.860Z,50
2017-02-28T15:18:02.252Z,45
2017-02-28T15:19:11.343Z,40
2017-02-28T15:20:20.737Z,40
2017-02-28T15:21:29.825Z,40
2017-02-28T15:22:38.806Z,40
2017-02-28T15:23:48.317Z,35
2017-02-28T15:24:57.325Z,35
2017-02-28T15:26:06.748Z,30
2017-02-28T15:27:15.737Z,35
2017-02-28T15:28:24.732Z,35
2017-02-28T15:29:33.710Z,30
2017-02-28T15:30:42.703Z,30
2017-02-28T15:31:52.002Z,40
2017-02-28T15:33:01.065Z,35
2017-02-28T15:34:10.056Z,35
2017-02-28T15:35:19.031Z,35
2017-02-28T15:36:28.036Z,35
2017-02-28T15:37:37.343Z,35
2017-02-28T15:38:47.145Z,35
2017-02-28T15:39:56.133Z,40
2017-02-28T15:41:05.117Z,45
2017-02-28T15:42:14.109Z,40
2017-02-28T15:43:23.340Z,35
2017-02-28T15:44:32.337Z,35
2017-02-28T15:45:41.322Z,35
2017-02-28T15:46:50.311Z,35
2017-02-28T15:47:59.307Z,35
2017-02-28T15:49:08.529Z,30
2017-02-28T15:50:17.524Z,25
2017-02-28T15:51:26.513Z,20
2017-02-28T15:52:35.511Z,15
2017-02-28T15:53:44.488Z,15
2017-02-28T15:54:53.865Z,15
2017-02-28T15:56:02.844Z,15
2017-02-28T15:57:11.837Z,15
2017-02-28T15:58:20.904Z,15
2017-02-28T15:59:30.001Z,10
2017-02-28T16:00:39.700Z,10
2017-02-28T16:01:48.678Z,10
2017-02-28T16:02:57.657Z,10
2017-02-28T16:04:06.644Z,10
2017-02-28T16:05:15.640Z,10
2017-02-28T16:06:24.940Z,10
2017-02-28T16:07:33.949Z,10
2017-02-28T16:08:42.954Z,10
2017-02-28T16:09:51.956Z,10
2017-02-28T16:11:00.976Z,10
2017-02-28T16:12:10.686Z,10
2017-02-28T16:13:19.671Z,10
2017-02-28T16:14:28.664Z,10
2017-02-28T16:15:37.672Z,10
2017-02-28T16:16:46.659Z,10
2017-02-28T16:17:55.910Z,10
2017-02-28T16:19:04.913Z,10
2017-02-28T16:20:13.907Z,10
2017-02-28T16:21:22.919Z,10
2017-02-28T16:22:31.988Z,10
2017-02-28T16:23:41.693Z,5
2017-02-28T16:24:50.670Z,5
2017-02-28T16:25:59.692Z,5
2017-02-28T16:27:08.675Z,5
2017-02-28T16:28:17.662Z,5
2017-02-28T16:29:26.942Z,5
2017-02-28T16:30:35.936Z,5
2017-02-28T16:31:44.938Z,5
2017-02-28T16:32:54.001Z,5
2017-02-28T16:34:02.989Z,5
2017-02-28T16:35:12.277Z,0
2017-02-28T16:36:21.276Z,0
2017-02-28T16:37:30.271Z,0
2017-02-28T16:38:39.252Z,0